createdAt,value
2017-11-13T00:00:18.066Z,2.3
2017-11-13T00:02:17.779Z,2.1
2017-11-13T00:04:17.460Z,1.7
2017-11-13T00:06:17.191Z,1.5
2017-11-13T00:08:17.843Z,1.5
2017-11-13T00:10:17.539Z,1.9
2017-11-13T00:12:18.260Z,1.5
2017-11-13T00:14:17.922Z,1.6
2017-11-13T00:16:17.633Z,1.5
2017-11-13T00:18:18.326Z,1.2
2017-11-13T00:20:17.973Z,1.6
2017-11-13T00:22:17.684Z,1.6
2017-11-13T00:24:18.405Z,1.5
2017-11-13T00:26:17.076Z,1.4
2017-11-13T00:28:17.765Z,1
2017-11-13T00:30:17.466Z,1.2
2017-11-13T00:32:18.191Z,1.6
2017-11-13T00:34:17.849Z,2
2017-11-13T00:36:17.581Z,1.3
2017-11-13T00:38:18.233Z,1.8
2017-11-13T00:40:16.930Z,1.7
2017-11-13T00:42:17.656Z,1.8
2017-11-13T00:44:18.300Z,1.5
2017-11-13T00:46:17.024Z,1.6
2017-11-13T00:48:17.746Z,2.2
2017-11-13T00:50:17.414Z,1.9
2017-11-13T00:52:18.101Z,2.2
2017-11-13T00:54:17.824Z,1.7
2017-11-13T00:56:17.468Z,2
2017-11-13T00:58:18.152Z,2.3
2017-11-13T01:00:17.831Z,2.5
2017-11-13T01:02:17.499Z,2.7
2017-11-13T01:04:18.211Z,2.6
2017-11-13T01:06:16.882Z,2.5
2017-11-13T01:08:17.532Z,2.2
2017-11-13T01:10:17.219Z,2.3
2017-11-13T01:12:17.952Z,2.6
2017-11-13T01:14:17.607Z,2.5
2017-11-13T01:16:17.286Z,2.4
2017-11-13T01:18:17.993Z,2.7
2017-11-13T01:20:17.640Z,3.2
2017-11-13T01:22:18.333Z,2.9
2017-11-13T01:24:18.032Z,2.8
2017-11-13T01:26:16.680Z,2.8
2017-11-13T01:28:18.353Z,2.7
2017-11-13T01:30:18.021Z,2.9
2017-11-13T01:32:17.705Z,3
2017-11-13T01:34:18.382Z,3.1
2017-11-13T01:36:17.098Z,3.3
2017-11-13T01:38:17.743Z,3.6
2017-11-13T01:40:17.431Z,3.2
2017-11-13T01:42:18.140Z,3.9
2017-11-13T01:44:17.786Z,3.6
2017-11-13T01:46:17.476Z,3.3
2017-11-13T01:48:18.173Z,3.6
2017-11-13T01:52:17.492Z,4.6
2017-11-13T01:54:18.199Z,4
2017-11-13T01:56:16.849Z,3.9
2017-11-13T01:58:17.528Z,4
2017-11-13T02:02:16.907Z,4
2017-11-13T02:04:17.594Z,3.7
2017-11-13T02:06:17.294Z,4.7
2017-11-13T02:08:17.957Z,4.5
2017-11-13T02:10:17.690Z,4.6
2017-11-13T02:12:18.337Z,4.9
2017-11-13T02:14:18.013Z,4.9
2017-11-13T02:16:20.709Z,4.1
2017-11-13T02:18:17.374Z,4.3
2017-11-13T02:20:18.069Z,4.4
2017-11-13T02:22:17.787Z,4.6
2017-11-13T02:24:17.448Z,4.4
2017-11-13T02:26:17.139Z,4.2
2017-11-13T02:28:17.852Z,4.3
2017-11-13T02:30:17.514Z,4.4
2017-11-13T02:32:18.211Z,5.2
2017-11-13T02:34:17.927Z,5
2017-11-13T02:36:17.595Z,4.8
2017-11-13T02:38:18.320Z,5.3
2017-11-13T02:40:16.972Z,4.8
2017-11-13T02:42:17.650Z,5.3
2017-11-13T02:44:18.338Z,5.2
2017-11-13T02:46:17.061Z,4.5
2017-11-13T02:48:17.724Z,4.6
2017-11-13T02:50:18.424Z,5.2
2017-11-13T02:52:18.156Z,5.1
2017-11-13T02:54:17.837Z,4.4
2017-11-13T02:56:17.495Z,4.6
2017-11-13T03:00:16.859Z,5.1
2017-11-13T03:02:17.557Z,5.3
2017-11-13T03:04:18.228Z,5.7
2017-11-13T03:06:16.912Z,4.7
2017-11-13T03:08:17.618Z,4.3
2017-11-13T03:10:17.272Z,4.9
2017-11-13T03:12:17.957Z,5.2
2017-11-13T03:14:17.670Z,5.1
2017-11-13T03:16:17.353Z,5.2
2017-11-13T03:18:18.010Z,5.3
2017-11-13T03:20:17.704Z,5.6
2017-11-13T03:22:18.386Z,5.3
2017-11-13T03:24:18.086Z,6.2
2017-11-13T03:26:16.775Z,5.9
2017-11-13T03:28:17.450Z,5.6
2017-11-13T03:30:18.127Z,6.3
2017-11-13T03:32:17.829Z,7
2017-11-13T03:34:17.471Z,6.5
2017-11-13T03:36:17.160Z,6.5
2017-11-13T03:38:17.816Z,6.2
2017-11-13T03:40:17.529Z,7
2017-11-13T03:42:18.165Z,6.5
2017-11-13T03:44:17.833Z,7
2017-11-13T03:46:17.530Z,7.3
2017-11-13T03:48:18.200Z,7.1
2017-11-13T03:50:17.835Z,8
2017-11-13T03:52:17.545Z,6.6
2017-11-13T03:54:18.189Z,6.9
2017-11-13T03:56:16.849Z,7
2017-11-13T03:58:17.538Z,7.2
2017-11-13T04:00:18.184Z,7.8
2017-11-13T04:02:17.861Z,7.6
2017-11-13T04:04:17.558Z,7.5
2017-11-13T04:06:17.214Z,7.5
2017-11-13T04:08:17.872Z,7.3
2017-11-13T04:10:17.537Z,7.9
2017-11-13T04:12:18.193Z,7.4
2017-11-13T04:14:17.870Z,7.8
2017-11-13T04:16:17.522Z,7.4
2017-11-13T04:18:18.196Z,8
2017-11-13T04:20:17.861Z,8
2017-11-13T04:22:17.533Z,7
2017-11-13T04:24:18.209Z,7.2
2017-11-13T04:26:16.908Z,7.2
2017-11-13T04:28:17.565Z,7.2
2017-11-13T04:30:18.235Z,7
2017-11-13T04:32:17.952Z,6.9
2017-11-13T04:34:17.586Z,7.9
2017-11-13T04:36:17.271Z,8
2017-11-13T04:38:18.003Z,7
2017-11-13T04:40:17.644Z,7.2
2017-11-13T04:42:18.315Z,7
2017-11-13T04:44:18.030Z,6.8
2017-11-13T04:46:16.689Z,7.2
2017-11-13T04:48:18.373Z,7.2
2017-11-13T04:50:18.087Z,7.7
2017-11-13T04:52:17.744Z,7.6
2017-11-13T04:54:17.412Z,7
2017-11-13T04:56:17.109Z,7.2
2017-11-13T04:58:17.752Z,7.2
2017-11-13T05:00:17.434Z,6.6
2017-11-13T05:02:18.119Z,6.7
2017-11-13T05:04:17.773Z,6
2017-11-13T05:06:17.478Z,7.1
2017-11-13T05:08:18.128Z,7.5
2017-11-13T05:10:17.769Z,6.8
2017-11-13T05:12:17.445Z,6.9
2017-11-13T05:14:18.144Z,7.4
2017-11-13T05:16:16.806Z,7.1
2017-11-13T05:18:17.474Z,6.8
2017-11-13T05:20:18.143Z,7.4
2017-11-13T05:22:17.849Z,7.1
2017-11-13T05:24:17.502Z,8.2
2017-11-13T05:26:17.173Z,8.9
2017-11-13T05:28:17.842Z,9
2017-11-13T05:30:17.544Z,8.4
2017-11-13T05:32:18.191Z,9.2
2017-11-13T05:34:17.858Z,9.3
2017-11-13T05:36:17.531Z,9.8
2017-11-13T05:38:18.203Z,9.4
2017-11-13T05:40:17.843Z,9.9
2017-11-13T05:42:17.538Z,8.8
2017-11-13T05:44:18.185Z,9.6
2017-11-13T05:46:16.859Z,9.3
2017-11-13T05:48:17.573Z,9.9
2017-11-13T05:50:18.243Z,10
2017-11-13T05:52:17.911Z,10.3
2017-11-13T05:54:17.626Z,11.1
2017-11-13T05:56:17.275Z,10.8
2017-11-13T05:58:17.963Z,10.6
2017-11-13T06:00:17.638Z,10.2
2017-11-13T06:02:18.323Z,10.6
2017-11-13T06:04:17.991Z,10.5
2017-11-13T06:06:16.672Z,11.1
2017-11-13T06:08:18.355Z,9.8
2017-11-13T06:10:17.053Z,9.8
2017-11-13T06:12:17.705Z,9.7
2017-11-13T06:14:18.388Z,10
2017-11-13T06:16:17.082Z,9.8
2017-11-13T06:18:17.738Z,10
2017-11-13T06:20:18.422Z,9.7
2017-11-13T06:22:18.129Z,9.8
2017-11-13T06:24:17.787Z,8.8
2017-11-13T06:26:17.468Z,8.6
2017-11-13T06:28:20.296Z,9.2
2017-11-13T06:30:17.830Z,8.3
2017-11-13T06:32:17.510Z,9.1
2017-11-13T06:34:18.224Z,9.4
2017-11-13T06:36:16.896Z,8.4
2017-11-13T06:38:17.586Z,8.5
2017-11-13T06:40:17.266Z,9.5
2017-11-13T06:42:17.960Z,8.6
2017-11-13T06:44:17.657Z,9
2017-11-13T06:46:17.361Z,8.8
2017-11-13T06:48:18.052Z,8.6
2017-11-13T06:50:17.772Z,8.4
2017-11-13T06:52:17.447Z,9.5
2017-11-13T06:54:18.140Z,8.8
2017-11-13T06:56:17.848Z,9.2
2017-11-13T06:58:17.523Z,8.9
2017-11-13T07:00:18.206Z,8.9
2017-11-13T07:02:17.928Z,9.1
2017-11-13T07:04:17.585Z,9
2017-11-13T07:06:18.270Z,8.7
2017-11-13T07:08:17.978Z,8.7
2017-11-13T07:10:20.549Z,8.7
2017-11-13T07:12:17.335Z,7.7
2017-11-13T07:14:18.056Z,7.8
2017-11-13T07:16:20.567Z,7.9
2017-11-13T07:18:18.422Z,7.8
2017-11-13T07:20:18.120Z,7.7
2017-11-13T07:22:17.782Z,7.9
2017-11-13T07:24:17.488Z,7.8
2017-11-13T07:26:18.141Z,8.3
2017-11-13T07:28:17.824Z,8.1
2017-11-13T07:30:17.517Z,7.5
2017-11-13T07:32:18.188Z,8
2017-11-13T07:34:17.878Z,6.9
2017-11-13T07:36:17.565Z,7.3
2017-11-13T07:38:18.252Z,6.8
2017-11-13T07:40:16.969Z,7.5
2017-11-13T07:42:17.627Z,7.2
2017-11-13T07:44:18.311Z,7.4
2017-11-13T07:46:18.023Z,7.5
2017-11-13T07:48:17.680Z,7.4
2017-11-13T07:50:18.388Z,7.3
2017-11-13T07:52:18.050Z,7.3
2017-11-13T07:54:17.741Z,6.7
2017-11-13T07:56:17.456Z,5.8
2017-11-13T07:58:18.112Z,6
2017-11-13T08:00:17.803Z,6.8
2017-11-13T08:02:17.519Z,6.2
2017-11-13T08:04:18.212Z,6.3
2017-11-13T08:06:17.891Z,6.6
2017-11-13T08:08:17.602Z,6
2017-11-13T08:10:17.275Z,5.7
2017-11-13T08:12:18.002Z,6.3
2017-11-13T08:14:17.688Z,6.7
2017-11-13T08:16:17.372Z,4.7
2017-11-13T08:18:18.055Z,6.1
2017-11-13T08:20:17.756Z,5.9
2017-11-13T08:22:17.458Z,5.4
2017-11-13T08:24:18.152Z,5.2
2017-11-13T08:26:17.847Z,6.3
2017-11-13T08:28:17.576Z,5
2017-11-13T08:30:18.231Z,5.3
2017-11-13T08:32:17.921Z,5.4
2017-11-13T08:34:17.611Z,5.6
2017-11-13T08:36:17.313Z,5.2
2017-11-13T08:38:18.009Z,4.9
2017-11-13T08:40:17.734Z,4.8
2017-11-13T08:42:18.408Z,5.4
2017-11-13T08:44:18.139Z,5.7
2017-11-13T08:46:17.827Z,4.7
2017-11-13T08:48:17.515Z,4.7
2017-11-13T08:50:18.199Z,5.3
2017-11-13T08:52:17.929Z,5.2
2017-11-13T08:54:17.604Z,5.2
2017-11-13T08:56:17.305Z,5.2
2017-11-13T08:58:18.036Z,4.7
2017-11-13T09:00:17.714Z,5.1
2017-11-13T09:02:18.404Z,4.9
2017-11-13T09:04:18.135Z,4.8
2017-11-13T09:06:16.837Z,4.5
2017-11-13T09:08:17.527Z,4.8
2017-11-13T09:10:17.237Z,4.7
2017-11-13T09:12:17.950Z,4.9
2017-11-13T09:14:17.666Z,4.7
2017-11-13T09:16:17.345Z,4.3
2017-11-13T09:18:18.061Z,4.5
2017-11-13T09:20:17.752Z,4
2017-11-13T09:22:17.475Z,4
2017-11-13T09:24:18.169Z,4.3
2017-11-13T09:26:16.880Z,3.9
2017-11-13T09:28:17.586Z,4.3
2017-11-13T09:30:18.307Z,3.7
2017-11-13T09:32:17.992Z,3.9
2017-11-13T09:34:17.710Z,3.9
2017-11-13T09:36:17.446Z,3.7
2017-11-13T09:38:18.121Z,4.5
2017-11-13T09:42:17.543Z,3.5
2017-11-13T09:44:18.245Z,3.7
2017-11-13T09:46:16.965Z,3.6
2017-11-13T09:48:17.650Z,3.4
2017-11-13T09:50:18.360Z,3.6
2017-11-13T09:52:18.107Z,4.1
2017-11-13T09:54:17.788Z,3.9
2017-11-13T09:56:17.492Z,4.1
2017-11-13T09:58:18.227Z,4.3
2017-11-13T10:00:17.935Z,4.8
2017-11-13T10:02:17.689Z,4.2
2017-11-13T10:04:18.388Z,4.4
2017-11-13T10:08:17.841Z,4.2
2017-11-13T10:10:17.527Z,3.8
2017-11-13T10:12:18.256Z,4.2
2017-11-13T10:14:17.997Z,3.7
2017-11-13T10:16:16.688Z,3.7
2017-11-13T10:18:17.438Z,4.5
2017-11-13T10:20:18.128Z,4.1
2017-11-13T10:22:17.858Z,4.3
2017-11-13T10:24:17.575Z,4
2017-11-13T10:26:17.307Z,4.5
2017-11-13T10:28:18.038Z,5
2017-11-13T10:30:17.789Z,4.8
2017-11-13T10:32:17.488Z,5
2017-11-13T10:34:18.231Z,4.4
2017-11-13T10:36:16.944Z,4.5
2017-11-13T10:38:17.642Z,6.4
2017-11-13T10:40:17.363Z,4.5
2017-11-13T10:42:18.112Z,3.7
2017-11-13T10:44:17.808Z,4.7
2017-11-13T10:46:17.539Z,3.7
2017-11-13T10:48:18.266Z,4.5
2017-11-13T10:50:17.961Z,3.8
2017-11-13T10:52:17.666Z,4.3
2017-11-13T10:54:18.399Z,4.3
2017-11-13T10:56:17.101Z,3.8
2017-11-13T10:58:17.838Z,3.9
2017-11-13T11:00:17.557Z,4.2
2017-11-13T11:02:18.285Z,4.3
2017-11-13T11:04:17.992Z,3.9
2017-11-13T11:06:17.749Z,3.7
2017-11-13T11:08:17.412Z,4.6
2017-11-13T11:10:17.095Z,3.9
2017-11-13T11:12:17.789Z,3.7
2017-11-13T11:14:17.505Z,3.6
2017-11-13T11:16:17.241Z,3.7
2017-11-13T11:18:17.921Z,3.6
2017-11-13T11:20:17.630Z,4
2017-11-13T11:22:18.359Z,2.8
2017-11-13T11:24:18.045Z,3.3
2017-11-13T11:26:16.746Z,3.7
2017-11-13T11:28:17.468Z,3.3
2017-11-13T11:30:18.159Z,3.4
2017-11-13T11:32:17.903Z,3.3
2017-11-13T11:34:17.588Z,3.2
2017-11-13T11:36:17.306Z,3.1
2017-11-13T11:38:18.039Z,3
2017-11-13T11:40:17.730Z,3.3
2017-11-13T11:42:17.433Z,2.8
2017-11-13T11:44:18.170Z,3.7
2017-11-13T11:46:16.859Z,3.2
2017-11-13T11:48:17.613Z,2.9
2017-11-13T11:50:18.281Z,3
2017-11-13T11:52:18.000Z,2.9
2017-11-13T11:54:17.756Z,3
2017-11-13T11:56:17.458Z,3.2
2017-11-13T11:58:18.167Z,2.9
2017-11-13T12:00:17.888Z,3.5
2017-11-13T12:02:17.598Z,3.3
2017-11-13T12:04:18.374Z,3
2017-11-13T12:06:18.079Z,2.7
2017-11-13T12:08:20.834Z,2.9
2017-11-13T12:10:17.586Z,2.4
2017-11-13T12:12:18.360Z,2.6
2017-11-13T12:14:21.100Z,2.9
2017-11-13T12:16:17.901Z,2.8
2017-11-13T12:18:17.677Z,2.6
2017-11-13T12:20:18.444Z,2.9
2017-11-13T12:22:17.260Z,2.6
2017-11-13T12:24:17.046Z,2.4
2017-11-13T12:26:17.851Z,2.5
2017-11-13T12:28:16.683Z,2.9
2017-11-13T12:30:17.468Z,4
2017-11-13T12:32:17.268Z,3
2017-11-13T12:34:17.144Z,2.3
2017-11-13T12:36:17.877Z,2
2017-11-13T12:38:16.759Z,2.4
2017-11-13T12:40:17.551Z,2.3
2017-11-13T12:42:17.363Z,2.1
2017-11-13T12:44:17.187Z,2.6
2017-11-13T12:46:16.997Z,2.1
2017-11-13T12:48:16.811Z,2.1
2017-11-13T12:50:16.648Z,2.2
2017-11-13T12:52:17.477Z,1.5
2017-11-13T12:54:17.288Z,1.8
2017-11-13T12:56:17.149Z,1.8
2017-11-13T12:58:17.924Z,1.4
2017-11-13T13:00:17.749Z,2.1
2017-11-13T13:02:16.605Z,1.8
2017-11-13T13:04:17.409Z,1.7
2017-11-13T13:06:17.239Z,1.6
2017-11-13T13:08:17.068Z,1.6
2017-11-13T13:10:17.878Z,1.6
2017-11-13T13:12:16.734Z,1.4
2017-11-13T13:14:17.557Z,1.8
2017-11-13T13:16:17.359Z,1.6
2017-11-13T13:18:18.212Z,1.8
2017-11-13T13:20:17.015Z,1.8
2017-11-13T13:22:16.847Z,1.5
2017-11-13T13:24:16.711Z,1.5
2017-11-13T13:26:17.484Z,1.3
2017-11-13T13:28:17.341Z,1.8
2017-11-13T13:30:17.131Z,1.4
2017-11-13T13:32:16.948Z,1.4
2017-11-13T13:34:16.771Z,1.3
2017-11-13T13:36:17.593Z,1.6
2017-11-13T13:38:17.414Z,1.7
2017-11-13T13:40:17.269Z,1.7
2017-11-13T13:42:18.062Z,1.6
2017-11-13T13:44:16.908Z,1.6
2017-11-13T13:46:17.723Z,1.2
2017-11-13T13:48:21.471Z,1.7
2017-11-13T13:50:17.327Z,1.6
2017-11-13T13:52:17.155Z,1.8
2017-11-13T13:54:16.931Z,1.5
2017-11-13T13:56:17.761Z,1
2017-11-13T13:58:16.606Z,1.1
2017-11-13T14:00:21.376Z,1.5
2017-11-13T14:02:17.242Z,1.2
2017-11-13T14:04:17.068Z,1.6
2017-11-13T14:06:17.866Z,1.5
2017-11-13T14:08:16.672Z,1.4
2017-11-13T14:10:17.485Z,1.2
2017-11-13T14:12:17.315Z,1.5
2017-11-13T14:14:17.126Z,1.1
2017-11-13T14:16:17.959Z,1
2017-11-13T14:18:17.748Z,0.9
2017-11-13T14:20:17.538Z,1.1
2017-11-13T14:22:17.346Z,0.9
2017-11-13T14:24:17.167Z,0.9
2017-11-13T14:26:16.999Z,0.9
2017-11-13T14:28:17.752Z,1.1
2017-11-13T14:30:17.601Z,1
2017-11-13T14:32:18.371Z,1.2
2017-11-13T14:34:21.148Z,1
2017-11-13T14:36:17.957Z,1.1
2017-11-13T14:38:16.788Z,1.2
2017-11-13T14:40:17.549Z,1.2
2017-11-13T14:42:17.341Z,1.5
2017-11-13T14:44:17.175Z,1.3
2017-11-13T14:46:16.956Z,1.3
2017-11-13T14:48:20.690Z,1.7
2017-11-13T14:50:17.501Z,1.2
2017-11-13T14:52:17.306Z,1.3
2017-11-13T14:54:21.114Z,1.2
2017-11-13T14:56:17.887Z,1.1
2017-11-13T14:58:16.703Z,1.1
2017-11-13T15:00:21.472Z,1.4
2017-11-13T15:02:17.322Z,1.3
2017-11-13T15:04:18.094Z,1.5
2017-11-13T15:06:16.906Z,1.6
2017-11-13T15:08:16.710Z,1.4
2017-11-13T15:10:17.475Z,1.4
2017-11-13T15:12:17.296Z,1.3
2017-11-13T15:14:17.112Z,1.1
2017-11-13T15:16:16.918Z,1
2017-11-13T15:18:17.755Z,1.6
2017-11-13T15:20:16.558Z,1.4
2017-11-13T15:22:17.365Z,1.6
2017-11-13T15:24:17.202Z,1.2
2017-11-13T15:26:17.029Z,0.9
2017-11-13T15:28:16.849Z,1.3
2017-11-13T15:30:16.685Z,1.3
2017-11-13T15:32:17.508Z,1.1
2017-11-13T15:34:17.376Z,1
2017-11-13T15:36:17.143Z,1.6
2017-11-13T15:38:16.987Z,1.2
2017-11-13T15:40:17.829Z,1.1
2017-11-13T15:42:16.633Z,1.1
2017-11-13T15:44:17.449Z,2
2017-11-13T15:46:17.273Z,1.4
2017-11-13T15:48:21.072Z,1.3
2017-11-13T15:50:16.944Z,1.7
2017-11-13T15:52:16.782Z,1
2017-11-13T15:54:16.579Z,1.6
2017-11-13T15:56:17.384Z,1.5
2017-11-13T15:58:17.254Z,1.6
2017-11-13T16:00:21.034Z,2.1
2017-11-13T16:02:16.875Z,2.1
2017-11-13T16:04:16.719Z,1.5
2017-11-13T16:06:17.528Z,2.3
2017-11-13T16:08:17.394Z,2.3
2017-11-13T16:10:17.183Z,2.2
2017-11-13T16:12:16.978Z,2.4
2017-11-13T16:14:16.843Z,2.1
2017-11-13T16:16:17.616Z,2.9
2017-11-13T16:18:21.421Z,1.7
2017-11-13T16:20:17.287Z,2.1
2017-11-13T16:22:21.097Z,3.1
2017-11-13T16:24:16.889Z,3.1
2017-11-13T16:26:17.717Z,2.2
2017-11-13T16:28:17.553Z,3
2017-11-13T16:30:21.363Z,3.5
2017-11-13T16:32:17.202Z,3.7
2017-11-13T16:34:20.976Z,3.8
2017-11-13T16:36:17.798Z,2.4
2017-11-13T16:38:16.669Z,2.1
2017-11-13T16:40:17.475Z,2.9
2017-11-13T16:42:21.266Z,2.8
2017-11-13T16:44:17.094Z,2.8
2017-11-13T16:46:17.962Z,2.6
2017-11-13T16:48:17.737Z,2.3
2017-11-13T16:50:16.544Z,2.7
2017-11-13T16:52:17.390Z,2.1
2017-11-13T16:54:21.188Z,2.1
2017-11-13T16:56:17.969Z,2
2017-11-13T16:58:16.803Z,2.5
2017-11-13T17:00:20.553Z,1.9
2017-11-13T17:02:17.405Z,1.5
2017-11-13T17:04:21.158Z,2
2017-11-13T17:06:17.976Z,2.1
2017-11-13T17:08:16.850Z,2
2017-11-13T17:10:17.620Z,1.7
2017-11-13T17:12:18.377Z,1.9
2017-11-13T17:14:17.198Z,2.5
2017-11-13T17:16:16.995Z,2.2
2017-11-13T17:18:17.791Z,2.3
2017-11-13T17:20:17.586Z,3.3
2017-11-13T17:22:21.336Z,2.6
2017-11-13T17:24:17.133Z,1.7
2017-11-13T17:26:16.953Z,2.2
2017-11-13T17:28:20.713Z,2.1
2017-11-13T17:30:21.497Z,2.1
2017-11-13T17:32:17.321Z,1.8
2017-11-13T17:34:17.103Z,2
2017-11-13T17:36:17.927Z,2.3
2017-11-13T17:38:17.684Z,2.3
2017-11-13T17:40:17.483Z,2.2
2017-11-13T17:42:17.308Z,2.2
2017-11-13T17:44:18.056Z,1.8
2017-11-13T17:46:17.830Z,2.3
2017-11-13T17:48:16.662Z,2.1
2017-11-13T17:50:21.407Z,1.9
2017-11-13T17:52:17.196Z,2.1
2017-11-13T17:54:17.016Z,1.7
2017-11-13T17:56:16.791Z,2.4
2017-11-13T17:58:20.588Z,1.9
2017-11-13T18:00:21.329Z,1.6
2017-11-13T18:02:17.146Z,2.1
2017-11-13T18:04:20.895Z,2.5
2017-11-13T18:06:17.707Z,2.3
2017-11-13T18:08:21.497Z,2.3
2017-11-13T18:10:17.352Z,1.8
2017-11-13T18:12:18.055Z,2
2017-11-13T18:14:20.846Z,1.6
2017-11-13T18:16:17.623Z,1.9
2017-11-13T18:18:18.374Z,1.5
2017-11-13T18:20:21.108Z,1.8
2017-11-13T18:22:16.926Z,1.9
2017-11-13T18:24:20.672Z,2.1
2017-11-13T18:26:17.480Z,1.9
2017-11-13T18:28:18.252Z,1.9
2017-11-13T18:30:21.014Z,2.5
2017-11-13T18:32:20.786Z,1.7
2017-11-13T18:34:20.589Z,2.1
2017-11-13T18:36:17.364Z,1.9
2017-11-13T18:38:18.105Z,2.2
2017-11-13T18:40:17.924Z,2.2
2017-11-13T18:42:17.655Z,1.8
2017-11-13T18:44:18.423Z,2.1
2017-11-13T18:46:17.214Z,2.3
2017-11-13T18:48:17.946Z,2.2
2017-11-13T18:50:20.702Z,1.6
2017-11-13T18:52:17.492Z,1.8
2017-11-13T18:54:21.256Z,1.9
2017-11-13T18:56:17.015Z,2
2017-11-13T18:58:20.770Z,1.7
2017-11-13T19:00:17.558Z,1.8
2017-11-13T19:02:18.290Z,1.8
2017-11-13T19:04:18.076Z,1.6
2017-11-13T19:06:17.826Z,1.8
2017-11-13T19:08:20.555Z,1.6
2017-11-13T19:10:17.363Z,1.7
2017-11-13T19:12:18.117Z,1.9
2017-11-13T19:14:17.862Z,1.8
2017-11-13T19:16:17.656Z,2.1
2017-11-13T19:18:18.396Z,1.7
2017-11-13T19:20:18.180Z,1.8
2017-11-13T19:22:17.915Z,2
2017-11-13T19:24:17.668Z,1.5
2017-11-13T19:26:17.450Z,2.1
2017-11-13T19:28:18.176Z,1.6
2017-11-13T19:30:17.942Z,2
2017-11-13T19:32:20.714Z,1.5
2017-11-13T19:34:18.458Z,1.6
2017-11-13T19:36:17.241Z,1.7
2017-11-13T19:38:17.997Z,1.7
2017-11-13T19:40:17.735Z,2.1
2017-11-13T19:42:21.483Z,2.3
2017-11-13T19:44:21.290Z,2
2017-11-13T19:46:18.040Z,1.9
2017-11-13T19:48:20.804Z,2.1
2017-11-13T19:50:17.552Z,2.3
2017-11-13T19:52:21.412Z,1.9
2017-11-13T19:54:18.126Z,2.5
2017-11-13T19:56:16.900Z,2.9
2017-11-13T19:58:17.667Z,2.2
2017-11-13T20:00:18.448Z,2.4
2017-11-13T20:02:21.201Z,2.1
2017-11-13T20:04:21.014Z,2.1
2017-11-13T20:06:17.788Z,2.8
2017-11-13T20:08:16.580Z,2.4
2017-11-13T20:10:17.352Z,2.3
2017-11-13T20:12:17.181Z,2.4
2017-11-13T20:14:20.941Z,2.2
2017-11-13T20:16:17.720Z,2.3
2017-11-13T20:18:17.533Z,2.2
2017-11-13T20:20:17.330Z,2.9
2017-11-13T20:22:21.077Z,2.3
2017-11-13T20:24:16.916Z,2.8
2017-11-13T20:26:17.701Z,2.3
2017-11-13T20:28:17.504Z,2.7
2017-11-13T20:30:21.267Z,2.6
2017-11-13T20:32:17.077Z,2.7
2017-11-13T20:34:16.891Z,2.6
2017-11-13T20:36:17.661Z,2.5
2017-11-13T20:38:17.453Z,2.8
2017-11-13T20:40:17.275Z,2.9
2017-11-13T20:42:21.010Z,3.1
2017-11-13T20:44:16.835Z,3.1
2017-11-13T20:46:17.642Z,2.7
2017-11-13T20:48:21.396Z,3.3
2017-11-13T20:50:17.215Z,3.4
2017-11-13T20:52:17.037Z,5.6
2017-11-13T20:54:20.807Z,5.8
2017-11-13T20:56:17.611Z,4.3
2017-11-13T20:58:21.414Z,4.8
2017-11-13T21:00:17.208Z,3.1
2017-11-13T21:02:20.988Z,3
2017-11-13T21:04:16.850Z,3.5
2017-11-13T21:06:17.641Z,3.2
2017-11-13T21:08:18.393Z,3.7
2017-11-13T21:10:17.193Z,4.1
2017-11-13T21:12:16.995Z,4.4
2017-11-13T21:14:16.795Z,4.2
2017-11-13T21:16:17.579Z,4.4
2017-11-13T21:18:18.381Z,3.6
2017-11-13T21:20:18.233Z,3.8
2017-11-13T21:22:21.013Z,4
2017-11-13T21:24:20.758Z,3.5
2017-11-13T21:26:17.596Z,3.8
2017-11-13T21:28:21.368Z,3.5
2017-11-13T21:30:21.146Z,3.9
2017-11-13T21:32:16.965Z,4.2
2017-11-13T21:34:16.755Z,4.1
2017-11-13T21:36:17.515Z,3.6
2017-11-13T21:38:17.350Z,4.4
2017-11-13T21:40:17.078Z,4.2
2017-11-13T21:42:16.867Z,3.7
2017-11-13T21:44:16.668Z,4
2017-11-13T21:46:17.454Z,3.7
2017-11-13T21:48:21.220Z,3.9
2017-11-13T21:50:17.026Z,4.7
2017-11-13T21:52:20.797Z,3.6
2017-11-13T21:56:17.392Z,4.2
2017-11-13T21:58:21.174Z,3.5
2017-11-13T22:00:16.993Z,3.4
2017-11-13T22:02:20.733Z,3.9
2017-11-13T22:04:16.552Z,4.1
2017-11-13T22:06:17.363Z,3.5
2017-11-13T22:08:18.126Z,3.7
2017-11-13T22:10:17.956Z,3
2017-11-13T22:12:20.734Z,3.6
2017-11-13T22:14:17.507Z,3.3
2017-11-13T22:16:18.316Z,3
2017-11-13T22:18:18.130Z,3.3
2017-11-13T22:20:20.879Z,3.4
2017-11-13T22:22:16.693Z,3
2017-11-13T22:24:21.499Z,3.7
2017-11-13T22:26:17.301Z,3.2
2017-11-13T22:28:18.036Z,3.7
2017-11-13T22:30:20.814Z,3.1
2017-11-13T22:32:16.625Z,2.8
2017-11-13T22:34:21.400Z,3.1
2017-11-13T22:36:17.193Z,3
2017-11-13T22:38:20.952Z,3.1
2017-11-13T22:40:17.763Z,3.3
2017-11-13T22:42:20.551Z,2.9
2017-11-13T22:44:21.297Z,3.4
2017-11-13T22:46:18.099Z,3.8
2017-11-13T22:48:17.858Z,3.6
2017-11-13T22:50:20.585Z,3.2
2017-11-13T22:52:21.360Z,3.6
2017-11-13T22:54:18.141Z,3.3
2017-11-13T22:56:16.875Z,3.6
2017-11-13T22:58:16.681Z,3
2017-11-13T23:00:18.392Z,2.7
2017-11-13T23:02:21.150Z,3.1
2017-11-13T23:04:20.913Z,3.2
2017-11-13T23:06:17.683Z,3
2017-11-13T23:08:18.430Z,2.9
2017-11-13T23:10:17.199Z,3.3
2017-11-13T23:12:20.929Z,3.5
2017-11-13T23:14:20.720Z,3.7
2017-11-13T23:16:17.468Z,3.6
2017-11-13T23:18:18.229Z,2.8
2017-11-13T23:20:20.954Z,3.1
2017-11-13T23:22:16.755Z,3
2017-11-13T23:24:20.485Z,2.9
2017-11-13T23:26:17.277Z,2.6
2017-11-13T23:28:21.034Z,2.6
2017-11-13T23:30:17.819Z,2.8
2017-11-13T23:32:20.568Z,2.7
2017-11-13T23:34:18.353Z,3.2
2017-11-13T23:36:18.110Z,2.4
2017-11-13T23:38:17.872Z,2.7
2017-11-13T23:40:17.637Z,2.9
2017-11-13T23:42:21.381Z,3.1
2017-11-13T23:44:17.154Z,2.5
2017-11-13T23:46:16.958Z,2.8
2017-11-13T23:48:17.671Z,2.4
2017-11-13T23:50:21.446Z,2.8
2017-11-13T23:52:21.176Z,2.4
2017-11-13T23:54:16.958Z,2.5
2017-11-13T23:56:17.756Z,2
2017-11-13T23:58:17.499Z,2.4
